sensor_id;sensor_type;location;lat;lon;timestamp;P1;durP1;ratioP1;P2;durP2;ratioP2
19205;SDS011;59358;52.134;5.596;2022-12-07T00:00:50;20.50;;;11.70;;
19205;SDS011;59358;52.134;5.596;2022-12-07T00:03:17;25.23;;;12.73;;
19205;SDS011;59358;52.134;5.596;2022-12-07T00:05:44;24.42;;;14.27;;
19205;SDS011;59358;52.134;5.596;2022-12-07T00:08:12;24.92;;;15.13;;
19205;SDS011;59358;52.134;5.596;2022-12-07T00:10:39;29.05;;;14.55;;
19205;SDS011;59358;52.134;5.596;2022-12-07T00:13:06;21.48;;;14.15;;
19205;SDS011;59358;52.134;5.596;2022-12-07T00:15:33;26.27;;;13.73;;
19205;SDS011;59358;52.134;5.596;2022-12-07T00:18:01;22.33;;;13.80;;
19205;SDS011;59358;52.134;5.596;2022-12-07T00:20:27;26.83;;;14.00;;
19205;SDS011;59358;52.134;5.596;2022-12-07T00:22:55;24.92;;;12.88;;
19205;SDS011;59358;52.134;5.596;2022-12-07T00:25:23;25.92;;;13.20;;
19205;SDS011;59358;52.134;5.596;2022-12-07T00:27:51;23.85;;;12.43;;
19205;SDS011;59358;52.134;5.596;2022-12-07T00:30:18;21.00;;;11.65;;
19205;SDS011;59358;52.134;5.596;2022-12-07T00:32:45;21.98;;;12.88;;
19205;SDS011;59358;52.134;5.596;2022-12-07T00:35:12;25.95;;;12.48;;
19205;SDS011;59358;52.134;5.596;2022-12-07T00:37:39;18.40;;;11.63;;
19205;SDS011;59358;52.134;5.596;2022-12-07T00:40:06;24.23;;;13.05;;
19205;SDS011;59358;52.134;5.596;2022-12-07T00:42:35;21.90;;;12.48;;
19205;SDS011;59358;52.134;5.596;2022-12-07T00:45:02;16.98;;;11.43;;
19205;SDS011;59358;52.134;5.596;2022-12-07T00:47:29;15.93;;;10.98;;
19205;SDS011;59358;52.134;5.596;2022-12-07T00:49:56;24.17;;;12.57;;
19205;SDS011;59358;52.134;5.596;2022-12-07T00:52:23;18.25;;;12.18;;
19205;SDS011;59358;52.134;5.596;2022-12-07T00:54:50;19.05;;;11.27;;
19205;SDS011;59358;52.134;5.596;2022-12-07T00:57:17;21.48;;;12.68;;
19205;SDS011;59358;52.134;5.596;2022-12-07T00:59:45;26.70;;;13.50;;
19205;SDS011;59358;52.134;5.596;2022-12-07T01:02:12;23.25;;;12.70;;
19205;SDS011;59358;52.134;5.596;2022-12-07T01:04:39;27.73;;;14.02;;
19205;SDS011;59358;52.134;5.596;2022-12-07T01:07:06;26.30;;;13.48;;
19205;SDS011;59358;52.134;5.596;2022-12-07T01:09:33;32.08;;;16.10;;
19205;SDS011;59358;52.134;5.596;2022-12-07T01:12:00;20.63;;;13.60;;
19205;SDS011;59358;52.134;5.596;2022-12-07T01:14:30;24.08;;;14.70;;
19205;SDS011;59358;52.134;5.596;2022-12-07T01:16:59;27.73;;;15.40;;
19205;SDS011;59358;52.134;5.596;2022-12-07T01:19:25;28.15;;;15.38;;
19205;SDS011;59358;52.134;5.596;2022-12-07T01:21:52;32.25;;;15.68;;
19205;SDS011;59358;52.134;5.596;2022-12-07T01:24:19;28.65;;;15.98;;
19205;SDS011;59358;52.134;5.596;2022-12-07T01:26:48;26.88;;;14.63;;
19205;SDS011;59358;52.134;5.596;2022-12-07T01:29:15;29.20;;;15.85;;
19205;SDS011;59358;52.134;5.596;2022-12-07T01:31:42;30.00;;;16.13;;
19205;SDS011;59358;52.134;5.596;2022-12-07T01:34:10;36.72;;;16.48;;
19205;SDS011;59358;52.134;5.596;2022-12-07T01:36:36;27.77;;;15.90;;
19205;SDS011;59358;52.134;5.596;2022-12-07T01:39:04;23.83;;;14.63;;
19205;SDS011;59358;52.134;5.596;2022-12-07T01:41:33;27.13;;;15.77;;
19205;SDS011;59358;52.134;5.596;2022-12-07T01:44:08;28.73;;;14.63;;
19205;SDS011;59358;52.134;5.596;2022-12-07T01:46:41;29.67;;;15.00;;
19205;SDS011;59358;52.134;5.596;2022-12-07T01:49:13;23.60;;;15.68;;
19205;SDS011;59358;52.134;5.596;2022-12-07T01:51:43;34.88;;;14.50;;
19205;SDS011;59358;52.134;5.596;2022-12-07T01:54:12;29.23;;;15.20;;
19205;SDS011;59358;52.134;5.596;2022-12-07T01:56:54;33.88;;;15.07;;
19205;SDS011;59358;52.134;5.596;2022-12-07T01:59:23;27.92;;;14.88;;
19205;SDS011;59358;52.134;5.596;2022-12-07T02:01:52;29.58;;;14.90;;
19205;SDS011;59358;52.134;5.596;2022-12-07T02:04:21;30.35;;;14.43;;
19205;SDS011;59358;52.134;5.596;2022-12-07T02:06:48;24.15;;;14.63;;
19205;SDS011;59358;52.134;5.596;2022-12-07T02:09:15;27.75;;;13.70;;
19205;SDS011;59358;52.134;5.596;2022-12-07T02:11:42;27.75;;;13.20;;
19205;SDS011;59358;52.134;5.596;2022-12-07T02:14:09;26.15;;;13.20;;
19205;SDS011;59358;52.134;5.596;2022-12-07T02:16:38;23.15;;;12.45;;
19205;SDS011;59358;52.134;5.596;2022-12-07T02:19:24;21.33;;;11.38;;
19205;SDS011;59358;52.134;5.596;2022-12-07T02:22:13;23.13;;;10.80;;
19205;SDS011;59358;52.134;5.596;2022-12-07T02:24:56;27.60;;;10.90;;
19205;SDS011;59358;52.134;5.596;2022-12-07T02:27:40;35.05;;;10.55;;
19205;SDS011;59358;52.134;5.596;2022-12-07T02:30:13;28.35;;;11.65;;
19205;SDS011;59358;52.134;5.596;2022-12-07T02:32:44;26.48;;;9.50;;
19205;SDS011;59358;52.134;5.596;2022-12-07T02:35:18;30.10;;;10.25;;
19205;SDS011;59358;52.134;5.596;2022-12-07T02:37:53;21.27;;;8.48;;
19205;SDS011;59358;52.134;5.596;2022-12-07T02:40:27;30.08;;;9.75;;
19205;SDS011;59358;52.134;5.596;2022-12-07T02:42:58;24.67;;;9.00;;
19205;SDS011;59358;52.134;5.596;2022-12-07T02:45:35;20.67;;;7.50;;
19205;SDS011;59358;52.134;5.596;2022-12-07T02:48:05;20.67;;;8.15;;
19205;SDS011;59358;52.134;5.596;2022-12-07T02:50:35;20.98;;;7.57;;
19205;SDS011;59358;52.134;5.596;2022-12-07T02:53:02;21.83;;;7.47;;
19205;SDS011;59358;52.134;5.596;2022-12-07T02:55:30;18.05;;;6.93;;
19205;SDS011;59358;52.134;5.596;2022-12-07T02:58:06;18.95;;;6.80;;
19205;SDS011;59358;52.134;5.596;2022-12-07T03:00:48;23.13;;;6.47;;
19205;SDS011;59358;52.134;5.596;2022-12-07T03:03:22;20.10;;;8.38;;
19205;SDS011;59358;52.134;5.596;2022-12-07T03:06:01;15.43;;;6.00;;
19205;SDS011;59358;52.134;5.596;2022-12-07T03:08:42;11.35;;;7.07;;
19205;SDS011;59358;52.134;5.596;2022-12-07T03:11:14;13.75;;;7.10;;
19205;SDS011;59358;52.134;5.596;2022-12-07T03:13:48;20.30;;;7.28;;
19205;SDS011;59358;52.134;5.596;2022-12-07T03:16:25;14.82;;;8.10;;
19205;SDS011;59358;52.134;5.596;2022-12-07T03:18:56;17.65;;;7.45;;
19205;SDS011;59358;52.134;5.596;2022-12-07T03:21:27;22.42;;;7.60;;
19205;SDS011;59358;52.134;5.596;2022-12-07T03:24:00;16.70;;;7.32;;
19205;SDS011;59358;52.134;5.596;2022-12-07T03:26:32;17.40;;;6.65;;
19205;SDS011;59358;52.134;5.596;2022-12-07T03:29:04;15.32;;;7.88;;
19205;SDS011;59358;52.134;5.596;2022-12-07T03:31:35;16.67;;;7.47;;
19205;SDS011;59358;52.134;5.596;2022-12-07T03:34:06;20.85;;;8.30;;
19205;SDS011;59358;52.134;5.596;2022-12-07T03:36:42;14.60;;;7.30;;
19205;SDS011;59358;52.134;5.596;2022-12-07T03:39:15;22.60;;;7.55;;
19205;SDS011;59358;52.134;5.596;2022-12-07T03:41:48;15.98;;;7.32;;
19205;SDS011;59358;52.134;5.596;2022-12-07T03:44:15;24.00;;;8.13;;
19205;SDS011;59358;52.134;5.596;2022-12-07T03:46:44;19.20;;;8.30;;
19205;SDS011;59358;52.134;5.596;2022-12-07T03:49:19;17.70;;;7.68;;
19205;SDS011;59358;52.134;5.596;2022-12-07T03:51:51;16.58;;;7.95;;
19205;SDS011;59358;52.134;5.596;2022-12-07T03:54:24;19.33;;;8.40;;
19205;SDS011;59358;52.134;5.596;2022-12-07T03:56:56;20.70;;;8.18;;
19205;SDS011;59358;52.134;5.596;2022-12-07T03:59:24;21.30;;;8.07;;
19205;SDS011;59358;52.134;5.596;2022-12-07T04:01:54;19.73;;;7.72;;
19205;SDS011;59358;52.134;5.596;2022-12-07T04:04:22;21.20;;;7.55;;
19205;SDS011;59358;52.134;5.596;2022-12-07T04:06:50;22.40;;;9.05;;
19205;SDS011;59358;52.134;5.596;2022-12-07T04:09:17;17.65;;;9.25;;
19205;SDS011;59358;52.134;5.596;2022-12-07T04:11:44;21.50;;;9.73;;
19205;SDS011;59358;52.134;5.596;2022-12-07T04:14:11;16.45;;;8.85;;
19205;SDS011;59358;52.134;5.596;2022-12-07T04:16:46;18.27;;;8.18;;
19205;SDS011;59358;52.134;5.596;2022-12-07T04:19:14;20.88;;;8.45;;
19205;SDS011;59358;52.134;5.596;2022-12-07T04:21:42;14.93;;;8.00;;
19205;SDS011;59358;52.134;5.596;2022-12-07T04:24:10;20.75;;;9.10;;
19205;SDS011;59358;52.134;5.596;2022-12-07T04:26:38;19.80;;;10.15;;
19205;SDS011;59358;52.134;5.596;2022-12-07T04:29:06;16.30;;;7.80;;
19205;SDS011;59358;52.134;5.596;2022-12-07T04:31:33;19.40;;;6.88;;
19205;SDS011;59358;52.134;5.596;2022-12-07T04:34:00;15.35;;;7.10;;
19205;SDS011;59358;52.134;5.596;2022-12-07T04:36:28;15.13;;;7.22;;
19205;SDS011;59358;52.134;5.596;2022-12-07T04:38:56;18.40;;;6.90;;
19205;SDS011;59358;52.134;5.596;2022-12-07T04:41:23;20.52;;;6.88;;
19205;SDS011;59358;52.134;5.596;2022-12-07T04:43:53;19.05;;;7.05;;
19205;SDS011;59358;52.134;5.596;2022-12-07T04:46:21;20.10;;;7.90;;
19205;SDS011;59358;52.134;5.596;2022-12-07T04:48:48;19.33;;;5.95;;
19205;SDS011;59358;52.134;5.596;2022-12-07T04:51:16;15.80;;;7.53;;
19205;SDS011;59358;52.134;5.596;2022-12-07T04:53:47;18.13;;;6.80;;
19205;SDS011;59358;52.134;5.596;2022-12-07T04:56:15;16.23;;;6.25;;
19205;SDS011;59358;52.134;5.596;2022-12-07T04:58:43;16.98;;;7.05;;
19205;SDS011;59358;52.134;5.596;2022-12-07T05:01:11;30.40;;;7.40;;
19205;SDS011;59358;52.134;5.596;2022-12-07T05:03:39;17.67;;;7.50;;
19205;SDS011;59358;52.134;5.596;2022-12-07T05:06:06;17.48;;;6.90;;
19205;SDS011;59358;52.134;5.596;2022-12-07T05:08:34;18.80;;;7.25;;
19205;SDS011;59358;52.134;5.596;2022-12-07T05:11:02;17.50;;;7.60;;
19205;SDS011;59358;52.134;5.596;2022-12-07T05:13:30;20.40;;;6.13;;
19205;SDS011;59358;52.134;5.596;2022-12-07T05:15:58;17.17;;;6.40;;
19205;SDS011;59358;52.134;5.596;2022-12-07T05:18:25;19.35;;;6.10;;
19205;SDS011;59358;52.134;5.596;2022-12-07T05:20:52;20.60;;;5.90;;
19205;SDS011;59358;52.134;5.596;2022-12-07T05:23:19;20.52;;;6.78;;
19205;SDS011;59358;52.134;5.596;2022-12-07T05:25:46;21.63;;;7.15;;
19205;SDS011;59358;52.134;5.596;2022-12-07T05:28:14;19.85;;;6.78;;
19205;SDS011;59358;52.134;5.596;2022-12-07T05:30:41;13.07;;;5.68;;
19205;SDS011;59358;52.134;5.596;2022-12-07T05:33:08;22.77;;;6.55;;
19205;SDS011;59358;52.134;5.596;2022-12-07T05:35:34;13.27;;;5.15;;
19205;SDS011;59358;52.134;5.596;2022-12-07T05:38:02;16.95;;;6.50;;
19205;SDS011;59358;52.134;5.596;2022-12-07T05:40:29;24.75;;;7.72;;
19205;SDS011;59358;52.134;5.596;2022-12-07T05:42:56;27.17;;;7.60;;
19205;SDS011;59358;52.134;5.596;2022-12-07T05:45:24;19.67;;;7.70;;
19205;SDS011;59358;52.134;5.596;2022-12-07T05:47:51;17.85;;;6.53;;
19205;SDS011;59358;52.134;5.596;2022-12-07T05:50:18;13.57;;;5.78;;
19205;SDS011;59358;52.134;5.596;2022-12-07T05:52:45;17.23;;;6.47;;
19205;SDS011;59358;52.134;5.596;2022-12-07T05:55:11;21.15;;;6.50;;
19205;SDS011;59358;52.134;5.596;2022-12-07T05:57:38;17.25;;;7.28;;
19205;SDS011;59358;52.134;5.596;2022-12-07T06:00:27;16.67;;;5.95;;
19205;SDS011;59358;52.134;5.596;2022-12-07T06:02:52;16.38;;;6.25;;
19205;SDS011;59358;52.134;5.596;2022-12-07T06:05:19;15.55;;;5.63;;
19205;SDS011;59358;52.134;5.596;2022-12-07T06:07:46;17.40;;;6.68;;
19205;SDS011;59358;52.134;5.596;2022-12-07T06:10:13;14.35;;;5.75;;
19205;SDS011;59358;52.134;5.596;2022-12-07T06:12:40;20.50;;;6.10;;
19205;SDS011;59358;52.134;5.596;2022-12-07T06:15:08;12.60;;;5.50;;
19205;SDS011;59358;52.134;5.596;2022-12-07T06:17:39;28.65;;;6.53;;
19205;SDS011;59358;52.134;5.596;2022-12-07T06:20:06;15.63;;;5.45;;
19205;SDS011;59358;52.134;5.596;2022-12-07T06:22:33;14.23;;;4.90;;
19205;SDS011;59358;52.134;5.596;2022-12-07T06:25:00;14.52;;;5.13;;
19205;SDS011;59358;52.134;5.596;2022-12-07T06:27:28;17.85;;;7.32;;
19205;SDS011;59358;52.134;5.596;2022-12-07T06:29:57;22.70;;;8.77;;
19205;SDS011;59358;52.134;5.596;2022-12-07T06:32:24;28.98;;;9.55;;
19205;SDS011;59358;52.134;5.596;2022-12-07T06:34:53;19.08;;;5.35;;
19205;SDS011;59358;52.134;5.596;2022-12-07T06:37:19;19.58;;;5.13;;
19205;SDS011;59358;52.134;5.596;2022-12-07T06:39:46;19.52;;;5.20;;
19205;SDS011;59358;52.134;5.596;2022-12-07T06:42:13;20.48;;;5.25;;
19205;SDS011;59358;52.134;5.596;2022-12-07T06:44:40;18.10;;;5.70;;
19205;SDS011;59358;52.134;5.596;2022-12-07T06:47:07;21.65;;;5.47;;
19205;SDS011;59358;52.134;5.596;2022-12-07T06:49:34;22.58;;;5.78;;
19205;SDS011;59358;52.134;5.596;2022-12-07T06:52:03;15.02;;;5.78;;
19205;SDS011;59358;52.134;5.596;2022-12-07T06:54:31;22.30;;;7.22;;
19205;SDS011;59358;52.134;5.596;2022-12-07T06:56:57;14.40;;;6.95;;
19205;SDS011;59358;52.134;5.596;2022-12-07T06:59:24;19.60;;;5.95;;
19205;SDS011;59358;52.134;5.596;2022-12-07T07:01:51;17.83;;;5.43;;
19205;SDS011;59358;52.134;5.596;2022-12-07T07:04:18;17.55;;;5.07;;
19205;SDS011;59358;52.134;5.596;2022-12-07T07:06:45;15.45;;;5.65;;
19205;SDS011;59358;52.134;5.596;2022-12-07T07:09:13;17.48;;;5.78;;
19205;SDS011;59358;52.134;5.596;2022-12-07T07:11:40;20.15;;;5.07;;
19205;SDS011;59358;52.134;5.596;2022-12-07T07:14:07;17.40;;;5.13;;
19205;SDS011;59358;52.134;5.596;2022-12-07T07:16:34;11.38;;;5.05;;
19205;SDS011;59358;52.134;5.596;2022-12-07T07:19:00;15.85;;;4.47;;
19205;SDS011;59358;52.134;5.596;2022-12-07T07:21:27;16.35;;;4.90;;
19205;SDS011;59358;52.134;5.596;2022-12-07T07:23:54;14.75;;;5.18;;
19205;SDS011;59358;52.134;5.596;2022-12-07T07:26:23;13.98;;;5.47;;
19205;SDS011;59358;52.134;5.596;2022-12-07T07:28:50;11.65;;;5.13;;
19205;SDS011;59358;52.134;5.596;2022-12-07T07:31:17;24.05;;;6.82;;
19205;SDS011;59358;52.134;5.596;2022-12-07T07:33:44;16.88;;;6.00;;
19205;SDS011;59358;52.134;5.596;2022-12-07T07:36:11;19.35;;;7.22;;
19205;SDS011;59358;52.134;5.596;2022-12-07T07:38:38;20.42;;;4.88;;
19205;SDS011;59358;52.134;5.596;2022-12-07T07:41:05;18.05;;;6.10;;
19205;SDS011;59358;52.134;5.596;2022-12-07T07:43:33;17.05;;;6.13;;
19205;SDS011;59358;52.134;5.596;2022-12-07T07:46:00;16.60;;;8.88;;
19205;SDS011;59358;52.134;5.596;2022-12-07T07:48:27;17.00;;;7.88;;
19205;SDS011;59358;52.134;5.596;2022-12-07T07:50:53;14.50;;;6.88;;
19205;SDS011;59358;52.134;5.596;2022-12-07T07:53:21;15.82;;;6.70;;
19205;SDS011;59358;52.134;5.596;2022-12-07T07:55:51;14.25;;;6.30;;
19205;SDS011;59358;52.134;5.596;2022-12-07T07:58:18;21.23;;;7.57;;
19205;SDS011;59358;52.134;5.596;2022-12-07T08:00:47;26.27;;;8.30;;
19205;SDS011;59358;52.134;5.596;2022-12-07T08:03:14;14.23;;;8.18;;
19205;SDS011;59358;52.134;5.596;2022-12-07T08:05:41;18.88;;;7.43;;
19205;SDS011;59358;52.134;5.596;2022-12-07T08:08:07;19.38;;;7.95;;
19205;SDS011;59358;52.134;5.596;2022-12-07T08:10:34;27.50;;;10.23;;
19205;SDS011;59358;52.134;5.596;2022-12-07T08:13:02;19.35;;;9.43;;
19205;SDS011;59358;52.134;5.596;2022-12-07T08:15:40;27.60;;;8.90;;
19205;SDS011;59358;52.134;5.596;2022-12-07T08:18:09;20.20;;;9.38;;
19205;SDS011;59358;52.134;5.596;2022-12-07T08:20:37;23.85;;;10.38;;
19205;SDS011;59358;52.134;5.596;2022-12-07T08:23:05;32.28;;;13.27;;
19205;SDS011;59358;52.134;5.596;2022-12-07T08:25:33;26.23;;;12.88;;
19205;SDS011;59358;52.134;5.596;2022-12-07T08:28:00;31.23;;;12.55;;
19205;SDS011;59358;52.134;5.596;2022-12-07T08:30:28;30.67;;;13.10;;
19205;SDS011;59358;52.134;5.596;2022-12-07T08:32:55;23.30;;;11.20;;
19205;SDS011;59358;52.134;5.596;2022-12-07T08:35:24;35.17;;;11.27;;
19205;SDS011;59358;52.134;5.596;2022-12-07T08:37:51;30.75;;;11.93;;
19205;SDS011;59358;52.134;5.596;2022-12-07T08:40:18;22.83;;;11.18;;
19205;SDS011;59358;52.134;5.596;2022-12-07T08:42:48;41.67;;;11.77;;
19205;SDS011;59358;52.134;5.596;2022-12-07T08:45:16;20.95;;;9.98;;
19205;SDS011;59358;52.134;5.596;2022-12-07T08:47:45;20.85;;;10.13;;
19205;SDS011;59358;52.134;5.596;2022-12-07T08:50:14;27.17;;;9.68;;
19205;SDS011;59358;52.134;5.596;2022-12-07T08:52:42;17.40;;;8.85;;
19205;SDS011;59358;52.134;5.596;2022-12-07T08:55:10;25.05;;;8.75;;
19205;SDS011;59358;52.134;5.596;2022-12-07T08:57:38;22.98;;;8.68;;
19205;SDS011;59358;52.134;5.596;2022-12-07T09:00:07;27.75;;;9.18;;
19205;SDS011;59358;52.134;5.596;2022-12-07T09:02:35;26.60;;;8.98;;
19205;SDS011;59358;52.134;5.596;2022-12-07T09:05:02;25.70;;;8.50;;
19205;SDS011;59358;52.134;5.596;2022-12-07T09:07:30;24.20;;;9.10;;
19205;SDS011;59358;52.134;5.596;2022-12-07T09:09:59;22.88;;;9.68;;
19205;SDS011;59358;52.134;5.596;2022-12-07T09:12:26;19.48;;;8.70;;
19205;SDS011;59358;52.134;5.596;2022-12-07T09:14:53;18.85;;;8.63;;
19205;SDS011;59358;52.134;5.596;2022-12-07T09:17:20;24.35;;;9.15;;
19205;SDS011;59358;52.134;5.596;2022-12-07T09:19:47;22.88;;;8.88;;
19205;SDS011;59358;52.134;5.596;2022-12-07T09:22:13;18.17;;;8.85;;
19205;SDS011;59358;52.134;5.596;2022-12-07T09:24:40;21.95;;;9.20;;
19205;SDS011;59358;52.134;5.596;2022-12-07T09:27:09;19.17;;;9.48;;
19205;SDS011;59358;52.134;5.596;2022-12-07T09:29:36;19.67;;;9.00;;
19205;SDS011;59358;52.134;5.596;2022-12-07T09:32:03;28.50;;;10.80;;
19205;SDS011;59358;52.134;5.596;2022-12-07T09:34:30;28.23;;;9.77;;
19205;SDS011;59358;52.134;5.596;2022-12-07T09:36:57;23.27;;;8.82;;
19205;SDS011;59358;52.134;5.596;2022-12-07T09:39:25;20.20;;;7.53;;
19205;SDS011;59358;52.134;5.596;2022-12-07T09:41:52;19.10;;;7.50;;
19205;SDS011;59358;52.134;5.596;2022-12-07T09:44:21;14.68;;;6.13;;
19205;SDS011;59358;52.134;5.596;2022-12-07T09:46:50;18.90;;;6.75;;
19205;SDS011;59358;52.134;5.596;2022-12-07T09:49:18;16.00;;;7.20;;
19205;SDS011;59358;52.134;5.596;2022-12-07T09:51:47;19.48;;;6.57;;
19205;SDS011;59358;52.134;5.596;2022-12-07T09:54:25;14.15;;;7.00;;
19205;SDS011;59358;52.134;5.596;2022-12-07T09:56:51;14.68;;;5.65;;
19205;SDS011;59358;52.134;5.596;2022-12-07T09:59:19;17.35;;;6.07;;
19205;SDS011;59358;52.134;5.596;2022-12-07T10:01:48;21.90;;;7.35;;
19205;SDS011;59358;52.134;5.596;2022-12-07T10:04:17;14.80;;;6.75;;
19205;SDS011;59358;52.134;5.596;2022-12-07T10:06:46;13.15;;;6.15;;
19205;SDS011;59358;52.134;5.596;2022-12-07T10:09:16;14.60;;;5.00;;
19205;SDS011;59358;52.134;5.596;2022-12-07T10:12:01;13.55;;;4.50;;
19205;SDS011;59358;52.134;5.596;2022-12-07T10:14:31;7.93;;;4.65;;
19205;SDS011;59358;52.134;5.596;2022-12-07T10:17:01;9.95;;;5.22;;
19205;SDS011;59358;52.134;5.596;2022-12-07T10:19:28;9.30;;;3.95;;
19205;SDS011;59358;52.134;5.596;2022-12-07T10:22:04;10.23;;;3.80;;
19205;SDS011;59358;52.134;5.596;2022-12-07T10:24:35;6.95;;;4.00;;
19205;SDS011;59358;52.134;5.596;2022-12-07T10:27:04;11.27;;;3.38;;
19205;SDS011;59358;52.134;5.596;2022-12-07T10:29:33;6.68;;;4.03;;
19205;SDS011;59358;52.134;5.596;2022-12-07T10:32:03;13.55;;;4.60;;
19205;SDS011;59358;52.134;5.596;2022-12-07T10:34:33;12.50;;;4.35;;
19205;SDS011;59358;52.134;5.596;2022-12-07T10:37:14;9.80;;;4.35;;
19205;SDS011;59358;52.134;5.596;2022-12-07T10:39:43;20.88;;;4.20;;
19205;SDS011;59358;52.134;5.596;2022-12-07T10:42:18;16.63;;;4.80;;
19205;SDS011;59358;52.134;5.596;2022-12-07T10:44:48;11.55;;;3.63;;
19205;SDS011;59358;52.134;5.596;2022-12-07T10:47:34;10.88;;;3.22;;
19205;SDS011;59358;52.134;5.596;2022-12-07T10:50:14;6.13;;;2.50;;
19205;SDS011;59358;52.134;5.596;2022-12-07T10:53:13;7.88;;;3.10;;
19205;SDS011;59358;52.134;5.596;2022-12-07T10:55:52;8.38;;;3.03;;
19205;SDS011;59358;52.134;5.596;2022-12-07T10:58:44;10.07;;;3.53;;
19205;SDS011;59358;52.134;5.596;2022-12-07T11:01:28;6.57;;;2.22;;
19205;SDS011;59358;52.134;5.596;2022-12-07T11:04:08;6.55;;;2.08;;
19205;SDS011;59358;52.134;5.596;2022-12-07T11:06:49;5.15;;;2.50;;
19205;SDS011;59358;52.134;5.596;2022-12-07T11:09:31;8.43;;;1.90;;
19205;SDS011;59358;52.134;5.596;2022-12-07T11:12:21;5.45;;;2.38;;
19205;SDS011;59358;52.134;5.596;2022-12-07T11:14:56;11.38;;;2.45;;
19205;SDS011;59358;52.134;5.596;2022-12-07T11:17:32;6.45;;;2.00;;
19205;SDS011;59358;52.134;5.596;2022-12-07T11:20:05;7.72;;;2.60;;
19205;SDS011;59358;52.134;5.596;2022-12-07T11:22:48;5.03;;;1.67;;
19205;SDS011;59358;52.134;5.596;2022-12-07T11:25:23;4.47;;;1.35;;
19205;SDS011;59358;52.134;5.596;2022-12-07T11:28:00;5.32;;;1.70;;
19205;SDS011;59358;52.134;5.596;2022-12-07T11:30:42;9.93;;;2.47;;
19205;SDS011;59358;52.134;5.596;2022-12-07T11:33:17;9.38;;;1.88;;
19205;SDS011;59358;52.134;5.596;2022-12-07T11:35:51;6.07;;;1.73;;
19205;SDS011;59358;52.134;5.596;2022-12-07T11:38:28;6.75;;;1.60;;
19205;SDS011;59358;52.134;5.596;2022-12-07T11:41:03;11.27;;;2.28;;
19205;SDS011;59358;52.134;5.596;2022-12-07T11:43:41;17.30;;;2.28;;
19205;SDS011;59358;52.134;5.596;2022-12-07T11:46:18;9.93;;;2.65;;
19205;SDS011;59358;52.134;5.596;2022-12-07T11:48:51;6.30;;;2.15;;
19205;SDS011;59358;52.134;5.596;2022-12-07T11:51:24;7.85;;;2.40;;
19205;SDS011;59358;52.134;5.596;2022-12-07T11:53:53;9.60;;;2.40;;
19205;SDS011;59358;52.134;5.596;2022-12-07T11:56:25;6.97;;;2.35;;
19205;SDS011;59358;52.134;5.596;2022-12-07T11:58:54;10.10;;;2.38;;
19205;SDS011;59358;52.134;5.596;2022-12-07T12:01:29;15.38;;;3.70;;
19205;SDS011;59358;52.134;5.596;2022-12-07T12:04:12;9.52;;;2.40;;
19205;SDS011;59358;52.134;5.596;2022-12-07T12:06:50;8.60;;;2.28;;
19205;SDS011;59358;52.134;5.596;2022-12-07T12:09:19;9.63;;;2.80;;
19205;SDS011;59358;52.134;5.596;2022-12-07T12:11:56;5.72;;;2.05;;
19205;SDS011;59358;52.134;5.596;2022-12-07T12:14:46;4.28;;;1.60;;
19205;SDS011;59358;52.134;5.596;2022-12-07T12:17:22;10.02;;;2.00;;
19205;SDS011;59358;52.134;5.596;2022-12-07T12:20:05;6.30;;;2.20;;
19205;SDS011;59358;52.134;5.596;2022-12-07T12:22:42;5.20;;;2.00;;
19205;SDS011;59358;52.134;5.596;2022-12-07T12:25:15;7.32;;;1.80;;
19205;SDS011;59358;52.134;5.596;2022-12-07T12:27:47;6.90;;;1.80;;
19205;SDS011;59358;52.134;5.596;2022-12-07T12:30:29;10.02;;;1.55;;
19205;SDS011;59358;52.134;5.596;2022-12-07T12:33:02;8.63;;;1.80;;
19205;SDS011;59358;52.134;5.596;2022-12-07T12:35:34;5.88;;;1.60;;
19205;SDS011;59358;52.134;5.596;2022-12-07T12:38:25;11.25;;;2.00;;
19205;SDS011;59358;52.134;5.596;2022-12-07T12:40:55;5.40;;;2.00;;
19205;SDS011;59358;52.134;5.596;2022-12-07T12:43:42;7.20;;;2.13;;
19205;SDS011;59358;52.134;5.596;2022-12-07T12:55:30;9.52;;;2.50;;
19205;SDS011;59358;52.134;5.596;2022-12-07T12:58:32;12.93;;;3.70;;
19205;SDS011;59358;52.134;5.596;2022-12-07T13:04:13;10.90;;;3.25;;
19205;SDS011;59358;52.134;5.596;2022-12-07T13:06:55;9.93;;;3.00;;
19205;SDS011;59358;52.134;5.596;2022-12-07T13:09:23;12.68;;;2.20;;
19205;SDS011;59358;52.134;5.596;2022-12-07T13:11:58;6.20;;;1.95;;
19205;SDS011;59358;52.134;5.596;2022-12-07T13:14:42;8.52;;;2.13;;
19205;SDS011;59358;52.134;5.596;2022-12-07T13:23:24;9.85;;;2.17;;
19205;SDS011;59358;52.134;5.596;2022-12-07T13:25:55;6.30;;;1.63;;
19205;SDS011;59358;52.134;5.596;2022-12-07T13:28:35;6.28;;;1.70;;
19205;SDS011;59358;52.134;5.596;2022-12-07T13:31:13;2.97;;;1.27;;
19205;SDS011;59358;52.134;5.596;2022-12-07T13:33:45;2.15;;;1.10;;
19205;SDS011;59358;52.134;5.596;2022-12-07T13:36:16;4.95;;;1.52;;
19205;SDS011;59358;52.134;5.596;2022-12-07T13:38:54;6.28;;;2.10;;
19205;SDS011;59358;52.134;5.596;2022-12-07T13:41:23;7.63;;;2.03;;
19205;SDS011;59358;52.134;5.596;2022-12-07T13:44:00;6.70;;;2.03;;
19205;SDS011;59358;52.134;5.596;2022-12-07T13:46:31;4.07;;;1.77;;
19205;SDS011;59358;52.134;5.596;2022-12-07T13:49:15;8.13;;;2.88;;
19205;SDS011;59358;52.134;5.596;2022-12-07T13:51:44;6.68;;;2.20;;
19205;SDS011;59358;52.134;5.596;2022-12-07T13:54:12;6.07;;;2.08;;
19205;SDS011;59358;52.134;5.596;2022-12-07T13:56:41;4.13;;;1.88;;
19205;SDS011;59358;52.134;5.596;2022-12-07T13:59:12;9.57;;;2.28;;
19205;SDS011;59358;52.134;5.596;2022-12-07T14:01:42;7.07;;;2.28;;
19205;SDS011;59358;52.134;5.596;2022-12-07T14:04:16;2.92;;;1.98;;
19205;SDS011;59358;52.134;5.596;2022-12-07T14:06:58;5.93;;;2.10;;
19205;SDS011;59358;52.134;5.596;2022-12-07T14:09:27;7.45;;;2.05;;
19205;SDS011;59358;52.134;5.596;2022-12-07T14:11:55;5.93;;;2.80;;
19205;SDS011;59358;52.134;5.596;2022-12-07T14:14:25;5.82;;;2.60;;
19205;SDS011;59358;52.134;5.596;2022-12-07T14:16:58;7.55;;;2.60;;
19205;SDS011;59358;52.134;5.596;2022-12-07T14:19:46;12.20;;;2.63;;
19205;SDS011;59358;52.134;5.596;2022-12-07T14:25:13;5.45;;;2.45;;
19205;SDS011;59358;52.134;5.596;2022-12-07T14:27:50;3.88;;;2.38;;
19205;SDS011;59358;52.134;5.596;2022-12-07T14:30:25;6.38;;;2.85;;
19205;SDS011;59358;52.134;5.596;2022-12-07T14:32:54;5.55;;;2.65;;
19205;SDS011;59358;52.134;5.596;2022-12-07T14:35:23;4.70;;;2.80;;
19205;SDS011;59358;52.134;5.596;2022-12-07T14:37:50;4.93;;;2.53;;
19205;SDS011;59358;52.134;5.596;2022-12-07T14:40:18;7.25;;;2.85;;
19205;SDS011;59358;52.134;5.596;2022-12-07T14:42:47;5.88;;;2.53;;
19205;SDS011;59358;52.134;5.596;2022-12-07T14:45:17;4.38;;;3.00;;
19205;SDS011;59358;52.134;5.596;2022-12-07T14:47:47;4.38;;;2.78;;
19205;SDS011;59358;52.134;5.596;2022-12-07T14:50:14;5.45;;;2.70;;
19205;SDS011;59358;52.134;5.596;2022-12-07T14:52:43;6.65;;;2.83;;
19205;SDS011;59358;52.134;5.596;2022-12-07T14:55:12;7.05;;;2.55;;
19205;SDS011;59358;52.134;5.596;2022-12-07T14:57:41;5.55;;;2.60;;
19205;SDS011;59358;52.134;5.596;2022-12-07T15:00:09;6.63;;;3.20;;
19205;SDS011;59358;52.134;5.596;2022-12-07T15:02:40;6.40;;;2.38;;
19205;SDS011;59358;52.134;5.596;2022-12-07T15:05:08;4.22;;;2.65;;
19205;SDS011;59358;52.134;5.596;2022-12-07T15:07:35;8.45;;;4.53;;
19205;SDS011;59358;52.134;5.596;2022-12-07T15:10:02;8.65;;;4.93;;
19205;SDS011;59358;52.134;5.596;2022-12-07T15:12:30;41.67;;;11.07;;
19205;SDS011;59358;52.134;5.596;2022-12-07T15:14:56;45.50;;;14.70;;
19205;SDS011;59358;52.134;5.596;2022-12-07T15:17:23;34.85;;;11.63;;